Time;durP1;ratioP1;P1;durP2;ratioP2;P2;SDS_P1;SDS_P2;PMS_P1;PMS_P2;Temp;Humidity;BMP_temperature;BMP_pressure;BME280_temperature;BME280_humidity;BME280_pressure;Samples;Min_cycle;Max_cycle;Signal;HPM_P1;HPM_P2
2023/08/24 00:01:12;;;;;;;5.70;3.08;;;;;;;30.00;45.62;98602.28;5092847;28;20421;-45
2023/08/24 00:03:40;;;;;;;11.50;3.60;;;;;;;29.69;45.55;98605.31;5093080;28;20588;-45
2023/08/24 00:06:06;;;;;;;9.18;3.22;;;;;;;28.93;46.97;98606.97;5093145;28;20501;-45
2023/08/24 00:08:32;;;;;;;13.13;3.38;;;;;;;28.19;49.13;98616.16;5093008;28;20069;-45
2023/08/24 00:10:58;;;;;;;11.82;3.50;;;;;;;27.83;50.51;98609.97;5092930;28;20072;-45
2023/08/24 00:13:23;;;;;;;7.72;3.40;;;;;;;27.54;51.07;98607.06;5091599;28;20039;-45
2023/08/24 00:15:49;;;;;;;5.82;3.00;;;;;;;27.26;52.25;98616.16;5092956;28;20028;-45
2023/08/24 00:18:18;;;;;;;9.32;3.40;;;;;;;26.96;53.42;98608.91;5091534;28;20058;-45
2023/08/24 00:20:43;;;;;;;12.10;4.47;;;;;;;27.02;53.63;98604.97;5092722;28;20020;-45
2023/08/24 00:23:09;;;;;;;16.08;3.78;;;;;;;27.47;53.07;98602.94;5092769;28;20027;-45
2023/08/24 00:25:35;;;;;;;11.68;3.80;;;;;;;27.83;51.88;98601.06;5091378;28;20024;-45
2023/08/24 00:28:01;;;;;;;9.07;3.88;;;;;;;27.96;51.68;98593.97;5092749;28;20169;-45
2023/08/24 00:30:26;;;;;;;19.73;4.78;;;;;;;28.18;52.73;98585.69;5092623;28;20095;-45
2023/08/24 00:32:52;;;;;;;7.15;3.30;;;;;;;28.29;50.80;98586.13;5091211;28;20039;-45
2023/08/24 00:35:17;;;;;;;10.57;3.10;;;;;;;28.13;50.58;98574.25;5091218;28;20024;-45
2023/08/24 00:37:43;;;;;;;358.48;239.85;;;;;;;28.06;51.04;98580.16;5091318;28;20020;-45
2023/08/24 00:40:09;;;;;;;50.72;21.08;;;;;;;28.15;50.93;98582.84;5091895;28;20503;-45
2023/08/24 00:42:39;;;;;;;9.15;4.65;;;;;;;28.15;50.58;98586.34;5091151;28;20386;-45
2023/08/24 00:45:07;;;;;;;10.65;3.35;;;;;;;27.93;50.50;98587.31;5092346;28;20118;-45
2023/08/24 00:47:34;;;;;;;7.55;3.47;;;;;;;27.66;51.73;98586.44;5091125;28;20413;-45
2023/08/24 00:50:00;;;;;;;12.55;4.63;;;;;;;27.49;52.17;98589.13;5090999;28;20062;-45
2023/08/24 00:52:31;;;;;;;7.95;2.70;;;;;;;27.55;52.45;98579.78;5092243;28;20027;-45
2023/08/24 00:54:58;;;;;;;11.48;4.45;;;;;;;27.47;52.24;98578.66;5091021;28;20028;-45
2023/08/24 00:57:24;;;;;;;15.52;4.15;;;;;;;27.60;52.36;98576.13;5092184;28;20032;-45
2023/08/24 00:59:50;;;;;;;5.97;2.75;;;;;;;27.89;51.54;98580.97;5096041;28;20040;-45
2023/08/24 01:02:15;;;;;;;12.18;3.63;;;;;;;27.80;51.44;98572.03;5092158;28;20076;-45
2023/08/24 01:04:44;;;;;;;10.15;2.83;;;;;;;27.61;51.71;98569.66;5092124;28;20036;-45
2023/08/24 01:07:10;;;;;;;9.85;3.10;;;;;;;27.37;52.71;98564.69;5092076;28;20095;-45
2023/08/24 01:09:36;;;;;;;8.45;3.95;;;;;;;27.16;53.07;98565.22;5092113;28;20027;-45
2023/08/24 01:12:22;;;;;;;10.25;3.05;;;;;;;26.99;53.45;98559.81;5090641;28;20020;-45
2023/08/24 01:15:13;;;;;;;10.27;3.05;;;;;;;26.88;53.77;98561.97;5092118;28;20032;-45
2023/08/24 01:17:41;;;;;;;18.27;4.38;;;;;;;26.92;54.27;98564.84;5090734;28;20400;-45
2023/08/24 01:20:09;;;;;;;8.23;4.00;;;;;;;27.08;53.65;98564.13;5090614;28;20535;-45
2023/08/24 01:22:54;;;;;;;10.30;3.95;;;;;;;27.14;53.67;98567.44;5092185;28;20106;-47
2023/08/24 01:25:38;;;;;;;8.00;3.72;;;;;;;26.97;53.74;98564.72;5092270;28;20043;-46
2023/08/24 01:28:06;;;;;;;11.05;2.95;;;;;;;26.67;54.33;98554.44;5091911;28;20020;-46
2023/08/24 01:30:33;;;;;;;10.30;3.80;;;;;;;26.51;55.18;98561.31;5090523;28;20107;-46
2023/08/24 01:32:59;;;;;;;12.13;3.80;;;;;;;26.68;54.86;98571.38;5090402;28;20074;-46
2023/08/24 01:35:24;;;;;;;9.60;3.25;;;;;;;27.02;54.33;98569.94;5091754;28;20028;-46
2023/08/24 01:37:50;;;;;;;14.48;3.33;;;;;;;27.00;53.64;98572.16;5091812;28;20488;-46
2023/08/24 01:40:49;;;;;;;13.63;4.22;;;;;;;26.85;54.43;98576.06;5091690;28;20020;-46
2023/08/24 01:43:17;;;;;;;7.68;3.50;;;;;;;27.03;54.06;98575.03;5009451;28;20041;-46
2023/08/24 01:45:44;;;;;;;11.52;4.45;;;;;;;27.34;53.88;98582.28;5009576;28;20044;-46
2023/08/24 01:48:12;;;;;;;13.73;3.80;;;;;;;27.91;52.91;98577.94;4993292;28;20033;-46
2023/08/24 01:50:38;;;;;;;6.53;3.20;;;;;;;28.23;51.25;98572.03;4994583;28;20073;-46
2023/08/24 01:53:04;;;;;;;10.80;3.75;;;;;;;28.29;51.39;98565.38;5013376;28;20034;-46
2023/08/24 01:55:30;;;;;;;12.93;4.22;;;;;;;28.34;51.06;98567.09;4996937;28;20515;-46
2023/08/24 01:57:56;;;;;;;6.47;3.42;;;;;;;28.25;50.64;98563.59;4996982;28;20034;-46
2023/08/24 02:00:22;;;;;;;10.75;3.30;;;;;;;28.14;51.21;98565.06;4996546;28;20261;-46
2023/08/24 02:02:48;;;;;;;8.43;3.10;;;;;;;28.01;51.13;98562.22;5013346;28;20613;-46
2023/08/24 02:05:14;;;;;;;18.02;4.60;;;;;;;27.99;51.59;98555.53;4996696;28;20078;-46
2023/08/24 02:07:42;;;;;;;8.10;3.22;;;;;;;27.96;51.63;98553.50;5013256;28;20033;-46
2023/08/24 02:10:08;;;;;;;12.02;2.90;;;;;;;27.59;51.89;98558.41;4980480;28;20030;-46
2023/08/24 02:12:34;;;;;;;9.13;3.42;;;;;;;27.16;53.48;98550.97;4996594;28;20141;-45
2023/08/24 02:14:59;;;;;;;7.50;3.20;;;;;;;26.86;54.59;98559.63;5013086;28;20586;-46
2023/08/24 02:17:26;;;;;;;9.55;3.83;;;;;;;26.74;55.37;98547.81;5013039;28;20496;-46
2023/08/24 02:19:52;;;;;;;10.10;3.90;;;;;;;26.76;55.46;98548.31;5089858;28;20502;-46
2023/08/24 02:22:18;;;;;;;12.43;3.95;;;;;;;26.75;55.16;98549.44;5095290;28;20116;-46
2023/08/24 02:24:43;;;;;;;8.15;3.20;;;;;;;26.65;54.98;98553.97;5095093;28;20371;-46
2023/08/24 02:27:09;;;;;;;10.18;4.45;;;;;;;26.54;55.21;98555.31;5093667;28;20028;-46
2023/08/24 02:29:35;;;;;;;10.07;3.63;;;;;;;26.36;55.38;98554.44;5095016;28;20028;-46
2023/08/24 02:32:01;;;;;;;13.35;3.95;;;;;;;26.43;56.02;98564.75;5095083;28;20396;-46
2023/08/24 02:34:27;;;;;;;12.35;3.30;;;;;;;26.47;55.57;98558.44;5094890;28;20016;-46
2023/08/24 02:36:53;;;;;;;9.55;3.80;;;;;;;26.39;55.57;98556.50;5094885;28;20028;-46
2023/08/24 02:39:18;;;;;;;10.65;4.53;;;;;;;26.38;56.40;98567.56;5094816;28;20024;-46
2023/08/24 02:41:44;;;;;;;11.98;3.58;;;;;;;26.41;56.00;98564.25;5095044;28;20073;-46
2023/08/24 02:44:09;;;;;;;7.68;3.63;;;;;;;26.40;55.76;98562.66;5093439;28;20054;-45
2023/08/24 02:46:35;;;;;;;8.93;3.40;;;;;;;26.26;56.06;98560.06;5094702;28;20024;-46
2023/08/24 02:49:01;;;;;;;14.93;4.00;;;;;;;26.22;56.71;98556.38;5094553;28;20039;-46
2023/08/24 02:51:31;;;;;;;10.88;3.70;;;;;;;26.22;56.78;98564.44;5094525;28;20028;-46
2023/08/24 02:53:57;;;;;;;16.17;3.83;;;;;;;26.18;56.61;98552.72;5094584;28;20024;-46
2023/08/24 02:56:22;;;;;;;10.35;4.22;;;;;;;26.41;56.31;98543.53;5094419;28;20506;-46
2023/08/24 02:58:48;;;;;;;13.40;3.63;;;;;;;26.49;55.96;98537.38;5094424;28;20024;-46
2023/08/24 03:01:14;;;;;;;12.40;3.72;;;;;;;26.41;56.04;98540.84;5093796;28;20125;-46
2023/08/24 03:03:39;;;;;;;13.57;3.47;;;;;;;26.34;55.92;98542.38;5092674;28;20024;-46
2023/08/24 03:06:07;;;;;;;9.73;4.00;;;;;;;26.22;56.54;98537.53;5094282;28;20020;-46
2023/08/24 03:08:34;;;;;;;10.57;3.53;;;;;;;26.17;56.76;98535.00;5094286;28;20389;-46
2023/08/24 03:11:00;;;;;;;15.00;5.60;;;;;;;25.99;56.97;98534.09;5093139;28;20462;-46
2023/08/24 03:13:27;;;;;;;10.35;4.45;;;;;;;25.70;57.84;98538.75;5093032;28;20026;-46
2023/08/24 03:15:53;;;;;;;9.63;3.88;;;;;;;25.57;58.29;98533.41;5094075;28;20069;-46
2023/08/24 03:18:20;;;;;;;13.00;3.70;;;;;;;25.36;58.71;98520.41;5092792;28;20099;-46
2023/08/24 03:20:47;;;;;;;11.45;4.10;;;;;;;25.02;60.17;98518.94;5094014;28;20107;-46
2023/08/24 03:23:13;;;;;;;10.68;4.30;;;;;;;24.82;60.90;98517.44;5092650;28;20028;-46
2023/08/24 03:25:40;;;;;;;8.80;3.63;;;;;;;24.76;60.89;98523.22;5092557;28;20026;-46
2023/08/24 03:28:07;;;;;;;9.85;4.10;;;;;;;24.66;61.21;98521.53;5093881;28;20564;-46
2023/08/24 03:30:37;;;;;;;8.25;4.22;;;;;;;24.55;61.90;98523.59;5092502;28;20501;-46
2023/08/24 03:33:04;;;;;;;11.70;3.72;;;;;;;24.74;61.87;98517.34;5092466;28;20042;-46
2023/08/24 03:35:33;;;;;;;11.38;4.25;;;;;;;25.06;61.08;98519.91;5092653;28;20039;-46
2023/08/24 03:37:59;;;;;;;8.95;3.63;;;;;;;25.29;59.96;98530.75;5093651;28;20446;-46
2023/08/24 03:40:24;;;;;;;12.32;3.50;;;;;;;25.47;59.75;98523.66;5092301;28;20063;-46
2023/08/24 03:42:51;;;;;;;9.82;4.00;;;;;;;25.75;58.65;98515.53;5093836;28;20020;-46
2023/08/24 03:45:16;;;;;;;11.98;4.22;;;;;;;25.40;58.59;98529.47;5075361;28;20032;-46
2023/08/24 03:47:42;;;;;;;15.98;4.70;;;;;;;25.54;59.69;98539.41;5093444;28;20028;-46
2023/08/24 03:50:08;;;;;;;22.83;5.20;;;;;;;26.05;58.91;98528.25;5093411;28;20460;-46
2023/08/24 03:52:34;;;;;;;13.45;3.85;;;;;;;26.67;57.05;98527.53;5093214;28;20053;-46
2023/08/24 03:54:59;;;;;;;11.50;4.38;;;;;;;26.92;55.40;98511.75;5093346;28;20070;-46
2023/08/24 03:57:25;;;;;;;20.50;5.57;;;;;;;27.02;55.73;98524.16;5093529;28;20020;-46
2023/08/24 03:59:51;;;;;;;19.70;5.53;;;;;;;27.37;54.70;98516.19;5092881;28;20046;-47
2023/08/24 04:02:17;;;;;;;14.70;4.63;;;;;;;27.70;53.38;98517.28;5091967;28;20024;-46
2023/08/24 04:04:43;;;;;;;17.50;5.82;;;;;;;28.00;52.42;98517.47;5093067;28;20103;-46
2023/08/24 04:07:09;;;;;;;16.98;4.47;;;;;;;28.03;52.14;98514.13;5092997;28;20073;-46
2023/08/24 04:09:34;;;;;;;14.55;4.78;;;;;;;28.21;51.78;98517.59;5092037;28;20107;-46
2023/08/24 04:12:00;;;;;;;10.50;4.10;;;;;;;28.05;50.58;98514.63;5092853;28;20024;-47
2023/08/24 04:14:26;;;;;;;16.50;3.78;;;;;;;27.58;51.99;98522.53;5091482;28;20070;-47
2023/08/24 04:16:52;;;;;;;10.98;3.85;;;;;;;27.10;52.81;98516.13;5092935;28;20048;-46
2023/08/24 04:19:17;;;;;;;14.40;4.00;;;;;;;26.73;54.09;98517.41;5092721;28;20070;-46
2023/08/24 04:21:43;;;;;;;12.90;4.47;;;;;;;26.78;54.98;98522.66;5091464;28;20028;-46
2023/08/24 04:24:09;;;;;;;13.65;4.35;;;;;;;27.23;54.58;98522.50;5092840;28;20035;-46
2023/08/24 04:26:34;;;;;;;15.73;4.18;;;;;;;27.38;53.24;98523.94;5092792;28;20030;-46
2023/08/24 04:29:00;;;;;;;56.58;48.20;;;;;;;27.19;53.44;98518.03;5092667;28;20390;-47
2023/08/24 04:31:25;;;;;;;22.10;6.82;;;;;;;27.33;54.11;98524.09;5091258;28;20024;-46
2023/08/24 04:33:51;;;;;;;74.22;10.60;;;;;;;27.57;53.63;98526.34;5091317;28;20101;-46
2023/08/24 04:36:17;;;;;;;28.40;6.40;;;;;;;27.66;52.67;98524.44;5092564;28;20066;-46
2023/08/24 04:38:43;;;;;;;25.67;5.90;;;;;;;27.70;52.51;98517.28;5091359;28;20020;-46
2023/08/24 04:41:09;;;;;;;18.00;8.63;;;;;;;27.61;52.41;98521.91;5092451;28;20016;-46
2023/08/24 04:43:38;;;;;;;10.95;4.30;;;;;;;27.39;52.33;98527.44;5091260;28;20070;-46
2023/08/24 04:46:04;;;;;;;12.35;5.15;;;;;;;27.08;53.60;98529.09;5091101;28;20435;-46
2023/08/24 04:48:34;;;;;;;13.45;4.88;;;;;;;27.07;53.97;98524.81;5091071;28;20036;-46
2023/08/24 04:51:00;;;;;;;15.07;3.53;;;;;;;27.04;53.57;98530.81;5092613;28;20389;-46
2023/08/24 04:53:26;;;;;;;14.38;4.20;;;;;;;26.73;53.98;98535.47;5092211;28;20059;-46
2023/08/24 04:55:52;;;;;;;11.98;4.53;;;;;;;26.58;54.70;98533.97;5092227;28;20095;-46
2023/08/24 04:58:18;;;;;;;26.30;6.82;;;;;;;26.42;54.92;98537.06;5092232;28;20050;-46
2023/08/24 05:00:44;;;;;;;14.90;4.60;;;;;;;26.29;55.47;98544.09;5090545;28;20044;-46
2023/08/24 05:03:10;;;;;;;27.92;8.57;;;;;;;26.10;55.91;98541.59;5091073;28;20485;-46
2023/08/24 05:05:36;;;;;;;11.18;4.07;;;;;;;25.90;56.63;98547.47;5092126;28;20020;-47
2023/08/24 05:08:05;;;;;;;10.82;4.53;;;;;;;25.68;57.39;98545.53;5092078;28;20107;-46
2023/08/24 05:10:33;;;;;;;8.13;3.60;;;;;;;25.54;57.95;98552.84;5092289;28;20443;-46
2023/08/24 05:12:59;;;;;;;9.15;3.75;;;;;;;25.58;58.08;98546.53;5074309;28;20028;-46
2023/08/24 05:15:26;;;;;;;20.90;5.07;;;;;;;26.06;57.61;98555.97;5090698;28;20549;-46
2023/08/24 05:17:54;;;;;;;17.45;5.15;;;;;;;26.99;56.01;98554.44;5090661;28;20114;-46
2023/08/24 05:20:21;;;;;;;24.98;5.30;;;;;;;27.91;53.36;98543.66;5090648;28;20031;-47
2023/08/24 05:22:47;;;;;;;25.00;5.40;;;;;;;28.65;51.21;98547.19;5091917;28;20095;-47
2023/08/24 05:25:18;;;;;;;11.98;4.30;;;;;;;29.12;49.06;98557.97;5091303;28;20028;-46
2023/08/24 05:27:44;;;;;;;13.07;3.67;;;;;;;29.33;47.96;98552.59;5090548;28;20420;-46
2023/08/24 05:30:10;;;;;;;15.98;4.65;;;;;;;29.46;47.41;98561.59;5091821;28;20537;-46
2023/08/24 05:32:38;;;;;;;14.73;4.22;;;;;;;29.67;46.98;98569.69;5091727;28;20024;-46
2023/08/24 05:35:05;;;;;;;56.45;8.10;;;;;;;30.00;46.66;98566.28;5091952;28;20032;-46
2023/08/24 05:37:31;;;;;;;53.58;7.57;;;;;;;30.44;45.63;98570.16;5090536;28;20020;-46
2023/08/24 05:39:57;;;;;;;40.47;6.50;;;;;;;30.81;44.63;98564.81;5091751;28;20099;-46
2023/08/24 05:42:22;;;;;;;27.13;4.97;;;;;;;31.20;43.58;98564.50;5091679;28;20083;-46
2023/08/24 05:44:48;;;;;;;23.85;5.82;;;;;;;31.40;43.14;98565.50;5091737;28;20028;-46
2023/08/24 05:47:14;;;;;;;20.30;4.78;;;;;;;31.59;42.18;98568.44;5090384;28;20020;-46
2023/08/24 05:49:39;;;;;;;18.23;3.97;;;;;;;31.77;42.22;98568.13;5091698;28;20020;-46
2023/08/24 05:52:05;;;;;;;18.52;4.53;;;;;;;31.77;41.77;98560.78;5090232;28;20039;-46
2023/08/24 05:54:32;;;;;;;15.60;4.60;;;;;;;31.64;42.12;98565.47;5090375;28;20028;-45
2023/08/24 05:57:00;;;;;;;15.68;4.80;;;;;;;31.64;41.97;98565.47;5091547;28;20110;-45
2023/08/24 05:59:27;;;;;;;16.85;3.95;;;;;;;31.90;41.84;98564.25;5091492;28;20530;-45
2023/08/24 06:01:52;;;;;;;124.72;70.18;;;;;;;32.31;40.83;98565.00;5091187;28;20137;-45
2023/08/24 06:04:18;;;;;;;39.00;8.90;;;;;;;32.79;39.86;98557.69;5091541;28;20071;-45
2023/08/24 06:06:45;;;;;;;22.02;6.10;;;;;;;33.45;38.33;98560.78;5091497;28;20488;-46
2023/08/24 06:09:10;;;;;;;23.75;5.68;;;;;;;34.05;37.62;98568.63;5090145;28;20035;-45
2023/08/24 06:11:36;;;;;;;20.27;4.85;;;;;;;34.54;36.38;98565.25;5090114;28;20020;-46
2023/08/24 06:14:02;;;;;;;11.55;5.35;;;;;;;34.91;35.45;98572.88;5091519;28;20024;-45
2023/08/24 06:16:29;;;;;;;17.67;4.05;;;;;;;35.20;34.71;98563.22;5090219;28;20032;-45
2023/08/24 06:18:54;;;;;;;11.65;4.07;;;;;;;35.56;34.03;98568.38;5091493;28;20021;-45
2023/08/24 06:21:20;;;;;;;13.32;3.70;;;;;;;35.64;33.81;98569.25;5090095;28;20059;-46
2023/08/24 06:23:47;;;;;;;12.75;4.05;;;;;;;35.79;33.32;98571.03;5091432;28;20021;-45
2023/08/24 06:26:15;;;;;;;18.90;4.97;;;;;;;36.05;32.85;98561.97;5091293;28;20024;-45
2023/08/24 06:28:41;;;;;;;16.08;4.55;;;;;;;36.38;32.25;98566.63;5090046;28;20024;-46
2023/08/24 06:31:10;;;;;;;40.13;36.25;;;;;;;36.69;31.70;98572.00;5091233;28;20529;-45
2023/08/24 06:33:36;;;;;;;883.45;765.17;;;;;;;36.99;31.80;98569.09;5091453;28;20375;-46
2023/08/24 06:36:05;;;;;;;412.92;279.52;;;;;;;37.24;30.91;98566.53;5089946;28;20409;-46
2023/08/24 06:38:31;;;;;;;99.55;89.20;;;;;;;37.52;30.73;98560.41;5092814;28;20040;-46
2023/08/24 06:40:58;;;;;;;53.97;45.40;;;;;;;37.76;30.29;98560.94;5094753;28;20111;-45
2023/08/24 06:43:24;;;;;;;23.42;13.88;;;;;;;37.95;29.51;98546.94;5094684;28;20103;-46
2023/08/24 06:45:50;;;;;;;42.50;30.95;;;;;;;38.01;29.54;98558.28;5094638;28;20039;-46
2023/08/24 06:48:17;;;;;;;10.40;4.15;;;;;;;37.88;29.69;98548.84;5094749;28;20016;-46
2023/08/24 06:50:43;;;;;;;33.72;17.45;;;;;;;37.82;30.11;98547.66;5094862;28;20110;-46
2023/08/24 06:53:09;;;;;;;34.67;9.73;;;;;;;38.04;30.12;98551.25;5093242;28;20541;-46
2023/08/24 06:55:36;;;;;;;27.55;6.47;;;;;;;38.29;29.38;98543.09;5093234;28;20024;-46
2023/08/24 06:58:04;;;;;;;24.67;6.03;;;;;;;38.39;29.41;98542.31;5094455;28;20028;-46
2023/08/24 07:00:31;;;;;;;11.77;4.05;;;;;;;38.21;28.79;98542.28;5094137;28;20040;-45
2023/08/24 07:02:57;;;;;;;8.18;3.42;;;;;;;37.49;29.55;98543.97;5094476;28;20024;-45
2023/08/24 07:05:23;;;;;;;11.30;4.03;;;;;;;37.13;30.56;98539.13;5093105;28;20020;-44
2023/08/24 07:07:53;;;;;;;25.85;5.63;;;;;;;36.94;31.25;98526.44;5094355;28;20024;-44
2023/08/24 07:10:20;;;;;;;22.88;5.82;;;;;;;37.80;30.02;98530.84;5094530;28;20362;-45
2023/08/24 07:12:46;;;;;;;22.50;5.30;;;;;;;38.68;28.37;98526.69;5094136;28;20020;-45
2023/08/24 07:15:12;;;;;;;20.73;4.25;;;;;;;39.14;27.83;98522.31;5094094;28;20103;-45
2023/08/24 07:17:38;;;;;;;522.05;481.08;;;;;;;39.34;27.76;98519.88;5094167;28;20028;-48
2023/08/24 07:20:05;;;;;;;272.70;249.93;;;;;;;39.47;27.11;98518.28;5094005;28;20016;-48
2023/08/24 07:22:32;;;;;;;597.65;546.50;;;;;;;39.77;26.73;98516.97;5093888;28;20039;-48
2023/08/24 07:24:58;;;;;;;943.60;848.28;;;;;;;40.08;27.04;98511.69;5092583;28;20016;-48
2023/08/24 07:27:23;;;;;;;183.15;167.02;;;;;;;40.38;25.80;98513.09;5075825;28;20016;-48
2023/08/24 07:29:49;;;;;;;29.40;22.67;;;;;;;40.01;26.08;98509.78;5093847;28;20509;-48
2023/08/24 07:32:15;;;;;;;44.45;39.75;;;;;;;39.14;26.99;98509.38;5093744;28;20059;-48
2023/08/24 07:34:41;;;;;;;26.50;10.40;;;;;;;38.46;28.12;98503.16;5093746;28;20070;-48
2023/08/24 07:37:07;;;;;;;19.27;12.93;;;;;;;38.15;28.23;98500.78;5093739;28;20484;-48
2023/08/24 07:39:33;;;;;;;15.13;4.78;;;;;;;38.25;28.31;98493.72;5093690;28;20027;-48
2023/08/24 07:41:59;;;;;;;14.48;5.70;;;;;;;38.51;28.44;98494.53;5093567;28;20035;-48
2023/08/24 07:44:25;;;;;;;18.55;5.82;;;;;;;38.93;27.88;98492.91;5092268;28;20020;-48
2023/08/24 07:46:50;;;;;;;24.08;6.72;;;;;;;39.61;27.17;98481.75;5093440;28;20133;-48
2023/08/24 07:49:16;;;;;;;32.05;7.25;;;;;;;40.91;25.53;98489.81;5093035;28;20024;-48
2023/08/24 07:51:47;;;;;;;15.85;4.43;;;;;;;42.23;24.11;98481.03;5093273;28;20035;-48
2023/08/24 07:54:13;;;;;;;27.58;7.82;;;;;;;42.99;23.00;98478.53;5093367;28;20531;-48
2023/08/24 07:56:38;;;;;;;18.13;7.22;;;;;;;43.54;22.99;98472.69;5093354;28;20067;-49
2023/08/24 07:59:04;;;;;;;24.45;8.90;;;;;;;44.24;22.61;98475.03;5093313;28;20566;-48
2023/08/24 08:01:30;;;;;;;28.45;8.85;;;;;;;44.86;22.29;98468.72;5092992;28;20386;-48
2023/08/24 08:03:56;;;;;;;64.88;12.38;;;;;;;45.34;22.10;98464.22;5091912;28;20047;-48
2023/08/24 08:06:24;;;;;;;45.40;8.60;;;;;;;45.59;21.40;98471.78;5092099;28;20028;-49
2023/08/24 08:08:51;;;;;;;18.10;4.85;;;;;;;46.01;21.55;98460.56;5093105;28;20020;-48
2023/08/24 08:11:17;;;;;;;27.33;5.07;;;;;;;46.77;20.83;98461.59;5093013;28;20028;-49
2023/08/24 08:13:43;;;;;;;40.78;7.63;;;;;;;47.42;20.00;98454.44;5091788;28;20099;-49
2023/08/24 08:16:09;;;;;;;45.30;7.57;;;;;;;48.04;19.33;98452.03;5093245;28;20024;-49
2023/08/24 08:18:36;;;;;;;39.58;8.07;;;;;;;48.47;19.17;98445.47;5092963;28;20430;-49
2023/08/24 08:21:08;;;;;;;24.20;6.45;;;;;;;48.79;18.69;98446.09;5091532;28;20477;-49
2023/08/24 08:23:33;;;;;;;22.48;5.43;;;;;;;48.53;19.27;98457.53;5092918;28;20024;-49
2023/08/24 08:25:59;;;;;;;33.30;7.75;;;;;;;48.51;19.48;98442.53;5092824;28;20089;-49
2023/08/24 08:28:25;;;;;;;20.42;4.68;;;;;;;48.33;19.22;98443.31;5092804;28;20016;-49
2023/08/24 08:30:50;;;;;;;25.92;5.78;;;;;;;47.63;19.87;98456.88;5091461;28;20028;-49
2023/08/24 08:33:16;;;;;;;20.33;4.00;;;;;;;47.66;17.93;98455.97;5091328;28;20024;-49
2023/08/24 08:35:43;;;;;;;17.70;3.88;;;;;;;47.57;16.70;98448.34;5092522;28;20091;-49
2023/08/24 08:38:08;;;;;;;12.55;3.30;;;;;;;47.65;17.44;98457.94;5092826;28;20043;-49
2023/08/24 08:40:37;;;;;;;12.00;3.60;;;;;;;47.67;16.45;98444.38;5092563;28;20497;-49
2023/08/24 08:43:03;;;;;;;11.18;2.88;;;;;;;47.52;16.05;98446.16;5092421;28;20520;-49
2023/08/24 08:45:29;;;;;;;13.95;3.72;;;;;;;47.79;15.97;98449.03;5092466;28;20020;-49
2023/08/24 08:48:00;;;;;;;9.82;3.08;;;;;;;47.90;15.06;98447.84;5092409;28;20016;-49
2023/08/24 08:50:27;;;;;;;8.32;3.30;;;;;;;47.78;15.43;98455.06;5092337;28;20045;-49
2023/08/24 08:52:53;;;;;;;9.25;3.38;;;;;;;47.03;15.43;98448.38;5092225;28;20024;-49
2023/08/24 08:55:19;;;;;;;5.88;2.50;;;;;;;46.61;16.19;98450.69;5092202;28;20134;-49
2023/08/24 08:57:49;;;;;;;15.07;3.45;;;;;;;46.71;16.35;98451.50;5090959;28;20020;-49
2023/08/24 09:00:18;;;;;;;14.93;3.25;;;;;;;46.91;15.75;98459.53;5091203;28;20493;-49
2023/08/24 09:02:47;;;;;;;11.02;3.15;;;;;;;47.35;14.98;98462.28;5090826;28;20024;-49
2023/08/24 09:05:14;;;;;;;9.90;2.70;;;;;;;46.90;15.32;98467.09;5090855;28;20111;-49
2023/08/24 09:07:41;;;;;;;11.68;2.92;;;;;;;46.59;15.42;98453.91;5092079;28;20016;-49
2023/08/24 09:10:08;;;;;;;25.25;4.07;;;;;;;46.60;15.65;98465.78;5092065;28;20508;-49
2023/08/24 09:12:34;;;;;;;35.65;10.73;;;;;;;46.06;15.70;98458.47;5092001;28;20520;-49
2023/08/24 09:15:03;;;;;;;43.13;18.60;;;;;;;45.62;15.95;98468.13;5092019;28;20034;-49
2023/08/24 09:17:29;;;;;;;16.52;3.95;;;;;;;45.12;16.43;98457.72;5091928;28;20028;-48
2023/08/24 09:19:59;;;;;;;44.72;36.88;;;;;;;45.49;16.52;98449.94;5091979;28;20031;-49
2023/08/24 09:22:24;;;;;;;13.77;6.80;;;;;;;46.40;15.54;98452.94;5091989;28;20498;-49
2023/08/24 09:24:50;;;;;;;11.05;3.75;;;;;;;46.72;15.55;98439.19;5090622;28;20066;-49
2023/08/24 09:27:18;;;;;;;10.85;3.13;;;;;;;46.86;15.21;98441.47;5091872;28;20024;-49
2023/08/24 09:29:49;;;;;;;8.52;2.70;;;;;;;46.69;15.53;98437.28;5092116;28;20094;-49
2023/08/24 09:32:14;;;;;;;128.70;12.68;;;;;;;45.97;15.92;98446.03;5091789;28;20489;-49
2023/08/24 09:34:41;;;;;;;12.15;3.55;;;;;;;45.43;16.14;98444.94;5107444;28;20027;-49
2023/08/24 09:37:16;;;;;;;14.38;4.43;;;;;;;45.64;16.50;98435.22;5091805;28;20031;-49
2023/08/24 09:39:44;;;;;;;17.45;3.00;;;;;;;45.38;16.27;98442.72;5090458;28;20458;-48
2023/08/24 09:42:09;;;;;;;15.50;3.28;;;;;;;45.09;16.00;98417.81;5091711;28;20020;-49
2023/08/24 09:44:36;;;;;;;9.30;2.85;;;;;;;44.93;16.15;98415.91;5091756;28;20028;-49
2023/08/24 09:47:01;;;;;;;18.90;3.42;;;;;;;44.61;16.39;98417.56;5091641;28;20028;-49
2023/08/24 09:49:28;;;;;;;15.00;3.17;;;;;;;44.97;16.46;98419.34;5091716;28;20020;-48
2023/08/24 09:51:58;;;;;;;10.60;2.63;;;;;;;45.69;15.33;98411.69;5090303;28;20049;-48
2023/08/24 09:54:27;;;;;;;8.85;2.92;;;;;;;45.59;15.45;98407.25;5091930;28;20402;-49
2023/08/24 09:56:56;;;;;;;9.10;2.88;;;;;;;45.21;15.78;98408.75;5090289;28;20111;-49
2023/08/24 09:59:24;;;;;;;8.25;3.05;;;;;;;45.37;15.66;98402.34;5091621;28;20034;-49
2023/08/24 10:01:54;;;;;;;12.50;3.55;;;;;;;45.36;15.57;98398.06;5091318;28;20061;-49
2023/08/24 10:04:25;;;;;;;9.38;3.08;;;;;;;44.85;15.52;98403.47;5091591;28;20079;-49
2023/08/24 10:07:03;;;;;;;13.80;3.55;;;;;;;44.65;15.86;98382.28;5091509;28;20024;-49
2023/08/24 10:09:38;;;;;;;10.18;2.83;;;;;;;44.57;16.43;98399.50;5091598;28;20020;-48
2023/08/24 10:12:07;;;;;;;11.20;3.15;;;;;;;44.36;16.03;98387.00;5093720;28;20024;-49
2023/08/24 10:14:55;;;;;;;9.05;2.60;;;;;;;44.45;16.36;98374.09;5095380;28;20020;-49
2023/08/24 10:17:22;;;;;;;11.55;3.40;;;;;;;44.76;16.12;98376.44;5095350;28;20024;-49
2023/08/24 10:19:48;;;;;;;8.65;2.33;;;;;;;45.44;15.80;98371.66;5093958;28;20028;-48
2023/08/24 10:22:14;;;;;;;12.43;3.28;;;;;;;45.91;15.25;98377.72;5095210;28;20045;-49
2023/08/24 10:24:42;;;;;;;12.27;3.25;;;;;;;45.98;15.25;98369.13;5093860;28;20032;-49
2023/08/24 10:27:10;;;;;;;20.65;3.47;;;;;;;46.09;15.10;98357.72;5095066;28;20044;-49
2023/08/24 10:29:35;;;;;;;12.00;3.05;;;;;;;45.54;15.05;98355.09;5095288;28;20570;-48
2023/08/24 10:32:03;;;;;;;11.88;3.33;;;;;;;44.86;15.91;98371.78;5094919;28;20024;-49
2023/08/24 10:34:28;;;;;;;8.43;2.80;;;;;;;44.66;16.03;98375.50;5094868;28;20079;-49
2023/08/24 10:36:54;;;;;;;11.32;3.13;;;;;;;44.59;15.82;98361.09;5094864;28;20024;-49
2023/08/24 10:39:28;;;;;;;11.15;3.15;;;;;;;44.19;16.07;98373.22;5095245;28;20082;-49
2023/08/24 10:41:54;;;;;;;33.53;4.50;;;;;;;43.84;15.84;98359.06;5094750;28;20482;-49
2023/08/24 10:44:37;;;;;;;18.23;3.33;;;;;;;43.48;16.22;98353.59;5094750;28;20016;-49
2023/08/24 10:47:43;;;;;;;11.80;3.13;;;;;;;43.35;16.57;98339.69;5093392;28;20374;-49
2023/08/24 10:50:10;;;;;;;9.27;2.78;;;;;;;43.35;16.38;98355.50;5064197;28;20036;-48
2023/08/24 10:52:38;;;;;;;8.05;2.65;;;;;;;43.41;16.21;98348.25;5094550;28;20027;-48
2023/08/24 10:55:21;;;;;;;23.27;3.60;;;;;;;43.75;16.45;98349.81;5094515;28;20082;-48
2023/08/24 10:57:58;;;;;;;19.10;3.78;;;;;;;44.45;16.00;98351.16;5094648;28;20429;-49
2023/08/24 11:00:29;;;;;;;12.75;2.80;;;;;;;45.05;15.30;98348.66;5092973;28;20048;-49
2023/08/24 11:02:56;;;;;;;13.23;3.10;;;;;;;45.09;15.09;98350.56;5094518;28;20031;-49
2023/08/24 11:05:30;;;;;;;25.60;4.30;;;;;;;44.54;15.23;98343.03;5093093;28;20027;-49
2023/08/24 11:08:03;;;;;;;11.52;3.47;;;;;;;44.34;15.25;98339.63;5093142;28;20028;-49
2023/08/24 11:10:56;;;;;;;7.93;3.05;;;;;;;44.01;15.75;98334.94;5094324;28;20089;-49
2023/08/24 11:13:24;;;;;;;10.83;2.63;;;;;;;44.10;15.59;98350.16;5094204;28;20024;-49
2023/08/24 11:15:54;;;;;;;10.23;3.00;;;;;;;44.05;15.54;98354.19;5092876;28;20103;-49
2023/08/24 11:18:28;;;;;;;15.98;3.20;;;;;;;44.05;15.69;98337.59;5094421;28;20441;-49
2023/08/24 11:21:04;;;;;;;10.85;2.85;;;;;;;44.30;15.27;98327.88;5092840;28;20458;-49
2023/08/24 11:23:30;;;;;;;11.45;2.97;;;;;;;44.34;15.48;98337.63;5093278;28;20089;-49
2023/08/24 11:25:59;;;;;;;7.68;2.75;;;;;;;44.57;15.61;98325.53;5094234;28;20016;-49
2023/08/24 11:28:26;;;;;;;8.77;3.03;;;;;;;44.46;15.12;98336.13;5092596;28;20056;-49